createdAt,value
2018-08-18T00:01:54.387Z,99845.41
2018-08-18T00:05:58.873Z,99849.16
2018-08-18T00:10:03.211Z,99848.36
2018-08-18T00:14:07.483Z,99852.01
2018-08-18T00:18:12.052Z,99855.69
2018-08-18T00:22:16.150Z,99864.77
2018-08-18T00:26:20.388Z,99868.44
2018-08-18T00:30:28.521Z,99865.44
2018-08-18T00:34:33.077Z,99867.39
2018-08-18T00:38:37.406Z,99867.97
2018-08-18T00:42:42.129Z,99864.17
2018-08-18T00:46:46.386Z,99864.77
2018-08-18T00:50:50.567Z,99865.98
2018-08-18T00:54:55.229Z,99871.19
2018-08-18T00:58:59.463Z,99878.12
2018-08-18T01:03:03.678Z,99888.55
2018-08-18T01:07:12.945Z,99887.97
2018-08-18T01:11:17.143Z,99890.98
2018-08-18T01:15:27.549Z,99886.77
2018-08-18T01:19:31.565Z,99882.42
2018-08-18T01:27:51.838Z,99886.14
2018-08-18T01:31:55.426Z,99894.30
2018-08-18T01:35:58.991Z,99894.09
2018-08-18T01:40:02.520Z,99900.23
2018-08-18T01:44:17.170Z,99900.98
2018-08-18T01:48:20.782Z,99893.98
2018-08-18T01:52:25.614Z,99902.55
2018-08-18T02:05:26.325Z,99906.11
2018-08-18T02:09:30.120Z,99902.23
2018-08-18T02:13:34.719Z,99901.81
2018-08-18T02:17:39.569Z,99901.81
2018-08-18T02:21:43.614Z,99900.15
2018-08-18T02:25:47.656Z,99912.91
2018-08-18T02:30:03.548Z,99910.98
2018-08-18T02:34:07.742Z,99914.38
2018-08-18T02:38:16.792Z,99910.14
2018-08-18T02:42:20.961Z,99915.16
2018-08-18T02:46:31.485Z,99923.30
2018-08-18T02:50:35.891Z,99930.52
2018-08-18T02:54:41.385Z,99930.73
2018-08-18T02:58:55.521Z,99936.19
2018-08-18T03:02:59.844Z,99935.80
2018-08-18T03:07:04.226Z,99932.70
2018-08-18T03:11:08.528Z,99938.06
2018-08-18T03:15:16.644Z,99950.20
2018-08-18T03:19:21.917Z,99958.28
2018-08-18T03:23:26.539Z,99961.48
2018-08-18T03:27:30.932Z,99966.61
2018-08-18T03:31:35.478Z,99968.95
2018-08-18T03:35:40.427Z,99975.27
2018-08-18T03:39:44.872Z,99977.52
2018-08-18T03:43:49.520Z,99982.05
2018-08-18T03:47:56.135Z,99987.11
2018-08-18T03:52:00.563Z,99982.48
2018-08-18T03:56:04.959Z,99988.45
2018-08-18T04:00:09.430Z,99989.84
2018-08-18T04:04:15.690Z,99997.00
2018-08-18T04:08:19.945Z,99995.33
2018-08-18T04:12:24.287Z,100002.05
2018-08-18T04:16:29.386Z,100007.41
2018-08-18T04:20:33.699Z,100009.31
2018-08-18T04:24:42.842Z,100008.46
2018-08-18T04:28:47.280Z,100020.88
2018-08-18T04:32:55.395Z,100017.82
2018-08-18T04:37:01.636Z,100027.27
2018-08-18T04:41:05.796Z,100029.94
2018-08-18T04:45:10.105Z,100031.66
2018-08-18T05:04:17.913Z,100050.45
2018-08-18T05:08:22.034Z,100053.98
2018-08-18T05:12:27.504Z,100055.57
2018-08-18T05:16:32.572Z,100059.34
2018-08-18T05:20:36.963Z,100053.77
2018-08-18T05:24:42.655Z,100046.73
2018-08-18T05:28:47.476Z,100044.25
2018-08-18T05:32:52.329Z,100049.31
2018-08-18T05:36:57.103Z,100056.19
2018-08-18T05:41:01.631Z,100059.38
2018-08-18T05:45:20.993Z,100065.17
2018-08-18T05:49:26.258Z,100073.60
2018-08-18T05:53:33.780Z,100081.99
2018-08-18T05:57:39.282Z,100078.31
2018-08-18T06:01:43.592Z,100081.22
2018-08-18T06:05:48.431Z,100078.84
2018-08-18T06:09:53.068Z,100082.95
2018-08-18T06:13:58.102Z,100072.40
2018-08-18T06:22:25.295Z,100088.49
2018-08-18T06:26:33.153Z,100076.31
2018-08-18T06:30:38.583Z,100083.39
2018-08-18T06:34:44.275Z,100092.38
2018-08-18T06:38:49.342Z,100094.63
2018-08-18T06:42:59.566Z,100096.70
2018-08-18T06:47:17.135Z,100094.33
2018-08-18T06:51:22.657Z,100098.48
2018-08-18T06:55:31.631Z,100099.78
2018-08-18T06:59:38.966Z,100109.41
2018-08-18T07:03:48.334Z,100115.13
2018-08-18T07:07:55.458Z,100113.53
2018-08-18T07:12:01.910Z,100110.12
2018-08-18T07:16:11.326Z,100124.61
2018-08-18T07:24:34.971Z,100117.85
2018-08-18T07:28:38.456Z,100120.95
2018-08-18T07:32:41.978Z,100122.89
2018-08-18T07:36:45.483Z,100125.99
2018-08-18T07:40:51.374Z,100125.06
2018-08-18T07:44:55.358Z,100117.45
2018-08-18T07:48:58.895Z,100127.50
2018-08-18T07:53:02.894Z,100133.27
2018-08-18T07:57:06.421Z,100133.50
2018-08-18T08:01:09.936Z,100134.67
2018-08-18T08:05:13.412Z,100130.88
2018-08-18T08:09:16.961Z,100135.06
2018-08-18T08:13:20.470Z,100143.39
2018-08-18T08:17:25.015Z,100134.62
2018-08-18T08:21:28.517Z,100128.61
2018-08-18T08:25:32.019Z,100134.38
2018-08-18T08:29:39.443Z,100132.91
2018-08-18T08:33:42.978Z,100123.16
2018-08-18T08:37:47.126Z,100130.42
2018-08-18T08:41:50.683Z,100126.42
2018-08-18T08:45:54.262Z,100125.25
2018-08-18T08:49:57.757Z,100117.57
2018-08-18T08:54:01.254Z,100120.66
2018-08-18T08:58:04.782Z,100127.05
2018-08-18T09:02:09.934Z,100120.62
2018-08-18T09:06:13.525Z,100117.71
2018-08-18T09:10:17.504Z,100118.09
2018-08-18T09:14:21.512Z,100114.44
2018-08-18T09:18:25.031Z,100115.30
2018-08-18T09:22:29.307Z,100105.70
2018-08-18T09:26:37.251Z,100108.77
2018-08-18T09:30:40.775Z,100101.80
2018-08-18T09:34:49.434Z,100103.33
2018-08-18T09:38:52.947Z,100098.23
2018-08-18T09:42:56.490Z,100096.44
2018-08-18T09:47:00.112Z,100100.86
2018-08-18T09:51:03.604Z,100091.11
2018-08-18T09:55:07.122Z,100097.38
2018-08-18T09:59:10.644Z,100092.84
2018-08-18T10:03:14.138Z,100091.39
2018-08-18T10:07:17.670Z,100090.41
2018-08-18T10:11:21.187Z,100091.98
2018-08-18T10:15:25.263Z,100089.19
2018-08-18T10:19:30.136Z,100088.41
2018-08-18T10:23:33.943Z,100087.42
2018-08-18T10:27:37.808Z,100092.34
2018-08-18T10:31:58.636Z,100088.63
2018-08-18T10:36:02.516Z,100089.14
2018-08-18T10:40:11.143Z,100091.95
2018-08-18T10:44:15.158Z,100088.48
2018-08-18T10:48:18.721Z,100088.37
2018-08-18T10:52:34.500Z,100089.58
2018-08-18T10:56:38.223Z,100078.80
2018-08-18T11:00:41.804Z,100086.45
2018-08-18T11:04:45.483Z,100082.66
2018-08-18T11:08:49.024Z,100073.16
2018-08-18T11:12:52.583Z,100075.77
2018-08-18T11:16:56.118Z,100069.87
2018-08-18T11:20:59.702Z,100073.61
2018-08-18T11:25:03.309Z,100066.75
2018-08-18T11:29:14.756Z,100064.13
2018-08-18T11:33:36.721Z,100062.17
2018-08-18T11:37:52.875Z,100055.25
2018-08-18T11:41:56.991Z,100052.39
2018-08-18T11:46:00.540Z,100054.90
2018-08-18T11:50:04.138Z,100049.44
2018-08-18T11:54:07.658Z,100044.23
2018-08-18T11:58:12.640Z,100053.38
2018-08-18T12:02:16.378Z,100050.52
2018-08-18T12:06:20.047Z,100051.88
2018-08-18T12:10:23.590Z,100044.44
2018-08-18T12:14:27.131Z,100038.48
2018-08-18T12:18:31.767Z,100042.19
2018-08-18T12:22:35.272Z,100042.92
2018-08-18T12:26:39.060Z,100035.25
2018-08-18T12:30:42.642Z,100031.19
2018-08-18T12:34:46.272Z,100022.14
2018-08-18T12:38:51.818Z,100013.08
2018-08-18T12:42:55.361Z,100017.88
2018-08-18T12:47:00.209Z,100011.19
2018-08-18T12:51:04.522Z,100004.53
2018-08-18T12:55:08.036Z,99996.07
2018-08-18T12:59:11.506Z,99998.55
2018-08-18T13:03:15.039Z,99984.91
2018-08-18T13:07:18.476Z,99997.44
2018-08-18T13:11:22.058Z,99986.66
2018-08-18T13:15:25.610Z,99983.80
2018-08-18T13:19:31.489Z,99981.55
2018-08-18T13:23:34.945Z,99967.45
2018-08-18T13:27:48.802Z,99969.29
2018-08-18T13:31:52.365Z,99965.84
2018-08-18T13:35:55.852Z,99955.57
2018-08-18T13:39:59.377Z,99950.98
2018-08-18T13:44:02.877Z,99953.70
2018-08-18T13:48:07.991Z,99941.95
2018-08-18T13:52:11.493Z,99949.88
2018-08-18T13:56:14.982Z,99951.96
2018-08-18T14:00:18.563Z,99948.89
2018-08-18T14:04:27.362Z,99943.44
2018-08-18T14:08:30.789Z,99949.73
2018-08-18T14:12:34.301Z,99951.31
2018-08-18T14:16:37.817Z,99955.15
2018-08-18T14:20:59.102Z,99954.13
2018-08-18T14:25:02.576Z,99948.59
2018-08-18T14:29:06.081Z,99946.41
2018-08-18T14:33:09.695Z,99950.75
2018-08-18T14:37:13.846Z,99954.59
2018-08-18T14:41:28.472Z,99945.78
2018-08-18T14:45:32.016Z,99944.03
2018-08-18T14:49:35.556Z,99945.39
2018-08-18T14:53:41.158Z,99936.41
2018-08-18T14:57:49.799Z,99937.73
2018-08-18T15:01:53.378Z,99938.50
2018-08-18T15:05:56.958Z,99928.36
2018-08-18T15:10:00.634Z,99928.87
2018-08-18T15:14:04.148Z,99925.77
2018-08-18T15:18:12.929Z,99919.84
2018-08-18T15:22:16.516Z,99916.52
2018-08-18T15:26:20.106Z,99914.55
2018-08-18T15:30:23.779Z,99912.08
2018-08-18T15:34:28.057Z,99915.09
2018-08-18T15:38:43.650Z,99906.79
2018-08-18T15:42:47.385Z,99909.03
2018-08-18T15:46:50.944Z,99905.84
2018-08-18T15:50:54.472Z,99904.38
2018-08-18T15:54:57.954Z,99897.06
2018-08-18T15:59:02.267Z,99906.72
2018-08-18T16:03:06.018Z,99905.73
2018-08-18T16:07:09.590Z,99910.44
2018-08-18T16:11:13.550Z,99914.80
2018-08-18T16:15:17.953Z,99915.17
2018-08-18T16:19:21.418Z,99914.06
2018-08-18T16:23:25.625Z,99913.23
2018-08-18T16:27:29.085Z,99906.80
2018-08-18T16:31:32.488Z,99911.37
2018-08-18T16:35:37.273Z,99903.60
2018-08-18T16:39:41.592Z,99907.42
2018-08-18T16:43:45.363Z,99894.56
2018-08-18T16:47:53.238Z,99902.97
2018-08-18T16:51:59.321Z,99907.03
2018-08-18T16:56:02.854Z,99912.37
2018-08-18T17:00:06.478Z,99918.67
2018-08-18T17:04:12.155Z,99917.17
2018-08-18T17:08:15.723Z,99919.16
2018-08-18T17:12:21.436Z,99921.14
2018-08-18T17:16:25.128Z,99924.72
2018-08-18T17:20:28.940Z,99936.45
2018-08-18T17:24:32.607Z,99941.52
2018-08-18T17:28:36.256Z,99939.77
2018-08-18T17:32:39.898Z,99939.16
2018-08-18T17:36:43.357Z,99939.89
2018-08-18T17:40:46.910Z,99948.89
2018-08-18T17:44:50.299Z,99963.69
2018-08-18T17:48:53.794Z,99960.34
2018-08-18T17:52:57.205Z,99965.27
2018-08-18T17:57:00.632Z,99968.06
2018-08-18T18:01:06.186Z,99970.52
2018-08-18T18:05:10.516Z,99980.13
2018-08-18T18:09:14.206Z,99978.98
2018-08-18T18:13:23.157Z,99983.27
2018-08-18T18:17:27.210Z,99987.97
2018-08-18T18:21:30.956Z,99992.46
2018-08-18T18:25:35.614Z,100004.88
2018-08-18T18:29:39.353Z,100001.98
2018-08-18T18:33:45.111Z,100013.98
2018-08-18T18:37:48.854Z,100023.17
2018-08-18T18:41:52.660Z,100024.77
2018-08-18T18:45:56.520Z,100030.37
2018-08-18T18:50:00.394Z,100029.42
2018-08-18T18:54:04.304Z,100029.09
2018-08-18T18:58:12.493Z,100033.97
2018-08-18T19:02:16.509Z,100038.45
2018-08-18T19:06:20.404Z,100041.71
2018-08-18T19:10:25.765Z,100043.78
2018-08-18T19:14:29.627Z,100050.05
2018-08-18T19:18:33.695Z,100057.36
2018-08-18T19:22:37.672Z,100058.30
2018-08-18T19:26:47.724Z,100056.21
2018-08-18T19:30:51.847Z,100056.41
2018-08-18T19:34:56.611Z,100061.95
2018-08-18T19:39:01.672Z,100069.99
2018-08-18T19:43:10.977Z,100070.77
2018-08-18T19:47:35.604Z,100072.91
2018-08-18T19:51:39.721Z,100075.50
2018-08-18T19:55:45.195Z,100078.53
2018-08-18T19:59:49.528Z,100074.48
2018-08-18T20:03:54.153Z,100078.52
2018-08-18T20:07:58.285Z,100077.73
2018-08-18T20:12:02.361Z,100078.91
2018-08-18T20:16:06.781Z,100085.77
2018-08-18T20:20:10.934Z,100080.91
2018-08-18T20:24:16.068Z,100087.17
2018-08-18T20:28:20.128Z,100082.34
2018-08-18T20:32:24.354Z,100087.83
2018-08-18T20:36:28.785Z,100090.52
2018-08-18T20:40:33.005Z,100092.28
2018-08-18T20:44:37.091Z,100096.72
2018-08-18T20:48:41.295Z,100098.42
2018-08-18T20:52:45.535Z,100107.28
2018-08-18T20:56:49.737Z,100117.69
2018-08-18T21:00:53.857Z,100120.27
2018-08-18T21:05:00.449Z,100133.62
2018-08-18T21:09:18.155Z,100130.77
2018-08-18T21:13:22.474Z,100138.87
2018-08-18T21:17:26.461Z,100138.05
2018-08-18T21:21:35.036Z,100141.89
2018-08-18T21:25:48.290Z,100142.22
2018-08-18T21:29:53.880Z,100149.82
2018-08-18T21:33:59.668Z,100150.96
2018-08-18T21:38:06.009Z,100155.20
2018-08-18T21:42:10.192Z,100145.86
2018-08-18T21:46:17.277Z,100147.22
2018-08-18T21:50:21.571Z,100149.50
2018-08-18T21:54:25.860Z,100153.71
2018-08-18T21:58:29.970Z,100148.42
2018-08-18T22:02:42.454Z,100149.83
2018-08-18T22:06:46.617Z,100144.38
2018-08-18T22:10:54.878Z,100147.79
2018-08-18T22:14:59.545Z,100143.83
2018-08-18T22:19:04.335Z,100139.98
2018-08-18T22:23:09.114Z,100138.61
2018-08-18T22:27:17.976Z,100137.67
2018-08-18T22:31:23.153Z,100133.07
2018-08-18T22:35:27.450Z,100141.71
2018-08-18T22:39:31.636Z,100139.55
2018-08-18T22:43:36.595Z,100137.78
2018-08-18T22:47:42.464Z,100143.32
2018-08-18T22:51:46.785Z,100142.92
2018-08-18T22:55:50.941Z,100138.24
2018-08-18T22:59:55.196Z,100140.52
2018-08-18T23:03:59.380Z,100142.02
2018-08-18T23:08:04.447Z,100148.37
2018-08-18T23:12:08.841Z,100147.72
2018-08-18T23:16:13.192Z,100154.22
2018-08-18T23:20:17.274Z,100153.95
2018-08-18T23:24:31.578Z,100155.44
2018-08-18T23:28:35.705Z,100155.34
2018-08-18T23:32:40.274Z,100164.28
2018-08-18T23:36:44.677Z,100164.55
2018-08-18T23:40:50.745Z,100163.87
2018-08-18T23:44:55.405Z,100161.73
2018-08-18T23:49:00.537Z,100163.14
2018-08-18T23:53:07.061Z,100160.52
2018-08-18T23:57:11.365Z,100150.62
